createdAt,value
2023-10-06T00:00:35.359Z,96285.66
2023-10-06T00:03:22.181Z,96283.81
2023-10-06T00:06:13.764Z,96283.22
2023-10-06T00:09:00.500Z,96278.84
2023-10-06T00:11:47.463Z,96276.78
2023-10-06T00:14:44.456Z,96284.09
2023-10-06T00:17:35.053Z,96279.91
2023-10-06T00:20:28.046Z,96264.81
2023-10-06T00:23:15.878Z,96278.06
2023-10-06T00:26:01.999Z,96274.53
2023-10-06T00:28:47.863Z,96276.63
2023-10-06T00:31:34.236Z,96275.41
2023-10-06T00:34:31.234Z,96281.06
2023-10-06T00:37:20.494Z,96281.25
2023-10-06T00:40:26.477Z,96273.41
2023-10-06T00:43:17.144Z,96274.66
2023-10-06T00:46:07.579Z,96286.50
2023-10-06T00:48:55.074Z,96278.66
2023-10-06T00:51:42.868Z,96264.31
2023-10-06T00:54:28.955Z,96280.13
2023-10-06T00:57:20.266Z,96290.50
2023-10-06T01:00:22.044Z,96295.75
2023-10-06T01:03:16.042Z,96290.78
2023-10-06T01:06:07.542Z,96290.16
2023-10-06T01:09:07.307Z,96292.03
2023-10-06T01:11:53.794Z,96280.25
2023-10-06T01:14:39.694Z,96289.13
2023-10-06T01:17:25.780Z,96282.94
2023-10-06T01:20:14.019Z,96294.78
2023-10-06T01:23:00.134Z,96289.38
2023-10-06T01:25:46.264Z,96302.69
2023-10-06T01:28:36.186Z,96296.03
2023-10-06T01:31:22.343Z,96306.44
2023-10-06T01:34:14.450Z,96319.81
2023-10-06T01:37:04.678Z,96318.16
2023-10-06T01:39:52.596Z,96310.03
2023-10-06T01:42:39.177Z,96306.28
2023-10-06T01:45:25.216Z,96309.19
2023-10-06T01:48:14.647Z,96303.41
2023-10-06T01:51:01.088Z,96307.56
2023-10-06T01:53:51.205Z,96318.59
2023-10-06T01:56:38.190Z,96293.72
2023-10-06T01:59:24.245Z,96314.28
2023-10-06T02:02:14.352Z,96321.75
2023-10-06T02:05:01.273Z,96304.09
2023-10-06T02:07:47.370Z,96328.22
2023-10-06T02:10:35.110Z,96333.84
2023-10-06T02:13:23.313Z,96331.38
2023-10-06T02:16:10.371Z,96347.38
2023-10-06T02:18:56.534Z,96321.56
2023-10-06T02:21:47.273Z,96320.75
2023-10-06T02:24:34.558Z,96334.50
2023-10-06T02:27:21.032Z,96340.50
2023-10-06T02:30:11.770Z,96347.38
2023-10-06T02:32:57.899Z,96343.00
2023-10-06T02:35:47.412Z,96353.81
2023-10-06T02:38:42.637Z,96352.34
2023-10-06T02:41:28.792Z,96347.13
2023-10-06T02:44:24.069Z,96347.56
2023-10-06T02:47:15.364Z,96311.38
2023-10-06T02:50:01.641Z,96330.69
2023-10-06T02:52:48.628Z,96342.78
2023-10-06T02:55:35.018Z,96343.59
2023-10-06T02:58:32.069Z,96318.88
2023-10-06T03:01:19.113Z,96346.31
2023-10-06T03:04:09.274Z,96341.34
2023-10-06T03:06:59.735Z,96332.41
2023-10-06T03:09:49.244Z,96331.34
2023-10-06T03:12:40.633Z,96343.19
2023-10-06T03:15:36.262Z,96321.78
2023-10-06T03:18:24.144Z,96342.81
2023-10-06T03:21:13.140Z,96350.69
2023-10-06T03:24:06.271Z,96345.72
2023-10-06T03:26:52.851Z,96352.38
2023-10-06T03:29:55.357Z,96350.91
2023-10-06T03:32:42.478Z,96327.00
2023-10-06T03:35:39.578Z,96366.13
2023-10-06T03:38:27.992Z,96338.66
2023-10-06T03:41:19.973Z,96360.31
2023-10-06T03:44:06.286Z,96365.91
2023-10-06T03:46:56.794Z,96342.00
2023-10-06T03:49:43.814Z,96371.53
2023-10-06T03:52:29.694Z,96350.75
2023-10-06T03:55:16.091Z,96368.44
2023-10-06T03:58:02.080Z,96349.06
2023-10-06T04:00:51.097Z,96369.25
2023-10-06T04:03:38.082Z,96368.22
2023-10-06T04:06:24.623Z,96370.69
2023-10-06T04:09:12.152Z,96364.47
2023-10-06T04:11:58.706Z,96350.94
2023-10-06T04:14:44.614Z,96364.88
2023-10-06T04:17:31.341Z,96360.31
2023-10-06T04:20:18.368Z,96367.38
2023-10-06T04:23:04.834Z,96363.63
2023-10-06T04:25:58.230Z,96360.50
2023-10-06T04:28:49.536Z,96351.59
2023-10-06T04:31:38.221Z,96365.09
2023-10-06T04:34:35.036Z,96381.94
2023-10-06T04:37:21.055Z,96377.75
2023-10-06T04:40:08.006Z,96380.28
2023-10-06T04:42:54.064Z,96370.28
2023-10-06T04:45:40.293Z,96359.69
2023-10-06T04:48:26.301Z,96371.94
2023-10-06T04:51:13.582Z,96397.75
2023-10-06T04:54:00.608Z,96396.91
2023-10-06T04:56:46.711Z,96400.88
2023-10-06T04:59:33.655Z,96396.72
2023-10-06T05:02:20.160Z,96384.44
2023-10-06T05:05:07.177Z,96391.09
2023-10-06T05:07:54.734Z,96394.22
2023-10-06T05:10:41.353Z,96412.72
2023-10-06T05:13:28.078Z,96405.47
2023-10-06T05:16:14.181Z,96416.06
2023-10-06T05:19:00.195Z,96420.22
2023-10-06T05:21:46.884Z,96433.97
2023-10-06T05:24:33.503Z,96426.03
2023-10-06T05:27:20.841Z,96418.13
2023-10-06T05:30:07.573Z,96412.53
2023-10-06T05:32:53.583Z,96431.66
2023-10-06T05:35:39.936Z,96430.41
2023-10-06T05:38:26.061Z,96431.44
2023-10-06T05:41:16.695Z,96436.66
2023-10-06T05:44:03.829Z,96444.78
2023-10-06T05:46:49.722Z,96437.09
2023-10-06T05:49:39.518Z,96432.28
2023-10-06T05:52:25.739Z,96443.53
2023-10-06T05:55:13.488Z,96431.69
2023-10-06T05:58:01.648Z,96452.50
2023-10-06T06:01:01.977Z,96456.88
2023-10-06T06:03:48.762Z,96446.47
2023-10-06T06:06:37.449Z,96437.69
2023-10-06T06:09:26.858Z,96466.44
2023-10-06T06:12:13.238Z,96457.91
2023-10-06T06:14:59.775Z,96461.03
2023-10-06T06:17:46.158Z,96467.91
2023-10-06T06:20:32.555Z,96395.03
2023-10-06T06:23:18.673Z,96446.66
2023-10-06T06:26:05.423Z,96450.19
2023-10-06T06:28:54.244Z,96467.66
2023-10-06T06:31:42.587Z,96452.09
2023-10-06T06:34:29.159Z,96456.44
2023-10-06T06:37:15.552Z,96487.84
2023-10-06T06:40:01.580Z,96477.66
2023-10-06T06:42:52.709Z,96471.19
2023-10-06T06:45:42.817Z,96487.22
2023-10-06T06:48:29.163Z,96461.81
2023-10-06T06:51:15.126Z,96484.91
2023-10-06T06:54:01.118Z,96465.56
2023-10-06T06:56:48.619Z,96480.09
2023-10-06T06:59:34.959Z,96488.19
2023-10-06T07:02:21.708Z,96463.22
2023-10-06T07:05:08.351Z,96472.38
2023-10-06T07:07:54.681Z,96479.59
2023-10-06T07:10:48.021Z,96487.94
2023-10-06T07:13:34.800Z,96483.97
2023-10-06T07:16:25.503Z,96490.03
2023-10-06T07:19:15.814Z,96482.91
2023-10-06T07:22:01.984Z,96496.28
2023-10-06T07:24:48.576Z,96484.59
2023-10-06T07:27:35.898Z,96506.63
2023-10-06T07:30:26.698Z,96508.91
2023-10-06T07:33:12.747Z,96510.75
2023-10-06T07:35:58.997Z,96506.97
2023-10-06T07:38:45.927Z,96503.25
2023-10-06T07:41:34.025Z,96506.91
2023-10-06T07:44:21.784Z,96521.72
2023-10-06T07:47:08.293Z,96513.97
2023-10-06T07:49:55.412Z,96508.75
2023-10-06T07:52:46.227Z,96491.84
2023-10-06T07:55:33.524Z,96507.22
2023-10-06T07:58:19.645Z,96504.47
2023-10-06T08:01:09.820Z,96494.88
2023-10-06T08:03:55.893Z,96507.53
2023-10-06T08:06:47.386Z,96498.97
2023-10-06T08:09:33.945Z,96515.38
2023-10-06T08:12:19.776Z,96508.41
2023-10-06T08:15:10.652Z,96507.16
2023-10-06T08:17:59.822Z,96485.28
2023-10-06T08:20:47.252Z,96492.69
2023-10-06T08:23:33.902Z,96482.47
2023-10-06T08:26:20.353Z,96502.97
2023-10-06T08:29:06.399Z,96497.50
2023-10-06T08:31:54.334Z,96501.78
2023-10-06T08:34:40.804Z,96497.81
2023-10-06T08:37:26.868Z,96495.63
2023-10-06T08:40:17.937Z,96501.16
2023-10-06T08:43:08.047Z,96502.41
2023-10-06T08:45:56.842Z,96492.88
2023-10-06T08:48:43.019Z,96488.88
2023-10-06T08:51:31.519Z,96484.78
2023-10-06T08:54:18.710Z,96497.53
2023-10-06T08:57:05.214Z,96483.75
2023-10-06T08:59:51.582Z,96486.16
2023-10-06T09:02:40.340Z,96488.03
2023-10-06T09:05:27.215Z,96492.66
2023-10-06T09:08:23.915Z,96501.19
2023-10-06T09:11:14.100Z,96479.00
2023-10-06T09:14:09.287Z,96491.69
2023-10-06T09:16:59.343Z,96485.13
2023-10-06T09:19:49.195Z,96484.19
2023-10-06T09:22:50.568Z,96487.06
2023-10-06T09:25:49.104Z,96472.63
2023-10-06T09:28:35.752Z,96475.72
2023-10-06T09:31:46.286Z,96484.78
2023-10-06T09:34:34.081Z,96493.69
2023-10-06T09:37:21.177Z,96491.25
2023-10-06T09:40:21.870Z,96498.75
2023-10-06T09:43:08.077Z,96495.47
2023-10-06T09:45:56.817Z,96485.41
2023-10-06T09:48:46.949Z,96489.28
2023-10-06T09:51:33.951Z,96491.81
2023-10-06T09:54:21.664Z,96485.94
2023-10-06T09:57:08.190Z,96472.41
2023-10-06T09:59:56.420Z,96478.91
2023-10-06T10:02:46.243Z,96474.41
2023-10-06T10:05:33.416Z,96482.81
2023-10-06T10:08:20.109Z,96476.44
2023-10-06T10:11:15.280Z,96466.03
2023-10-06T10:14:38.175Z,96458.50
2023-10-06T10:17:47.253Z,96461.41
2023-10-06T10:20:34.100Z,96449.38
2023-10-06T10:23:20.029Z,96428.22
2023-10-06T10:26:26.285Z,96441.72
2023-10-06T10:29:18.130Z,96439.06
2023-10-06T10:32:24.361Z,96435.19
2023-10-06T10:35:11.243Z,96429.03
2023-10-06T10:38:04.294Z,96424.91
2023-10-06T10:40:51.588Z,96414.25
2023-10-06T10:43:46.950Z,96405.03
2023-10-06T10:46:47.654Z,96404.03
2023-10-06T10:49:37.086Z,96402.19
2023-10-06T10:52:25.085Z,96389.50
2023-10-06T10:55:14.251Z,96393.97
2023-10-06T10:58:00.006Z,96386.38
2023-10-06T11:01:31.628Z,96380.22
2023-10-06T11:04:23.144Z,96377.09
2023-10-06T11:07:11.569Z,96380.38
2023-10-06T11:09:58.676Z,96385.34
2023-10-06T11:12:44.888Z,96371.38
2023-10-06T11:15:31.994Z,96372.28
2023-10-06T11:18:21.897Z,96372.47
2023-10-06T11:21:25.829Z,96342.75
2023-10-06T11:24:14.405Z,96367.97
2023-10-06T11:27:23.822Z,96362.38
2023-10-06T11:30:16.373Z,96361.22
2023-10-06T11:33:05.238Z,96363.97
2023-10-06T11:35:54.959Z,96335.53
2023-10-06T11:38:41.404Z,96343.28
2023-10-06T11:41:28.703Z,96361.84
2023-10-06T11:44:14.957Z,96365.66
2023-10-06T11:47:01.064Z,96345.47
2023-10-06T11:49:56.881Z,96353.66
2023-10-06T11:52:45.160Z,96354.25
2023-10-06T11:55:32.709Z,96352.69
2023-10-06T11:58:31.875Z,96350.34
2023-10-06T12:01:38.226Z,96343.28
2023-10-06T12:04:31.775Z,96353.41
2023-10-06T12:07:27.814Z,96360.28
2023-10-06T12:10:13.963Z,96346.06
2023-10-06T12:13:00.139Z,96363.00
2023-10-06T12:15:47.467Z,96354.97
2023-10-06T12:18:34.816Z,96348.13
2023-10-06T12:21:21.243Z,96345.53
2023-10-06T12:24:09.677Z,96357.72
2023-10-06T12:26:55.991Z,96356.22
2023-10-06T12:29:42.266Z,96354.81
2023-10-06T12:32:28.765Z,96356.88
2023-10-06T12:35:22.358Z,96350.03
2023-10-06T12:38:09.599Z,96348.88
2023-10-06T12:40:55.930Z,96359.94
2023-10-06T12:43:41.775Z,96359.09
2023-10-06T12:46:27.724Z,96345.06
2023-10-06T12:49:19.781Z,96344.56
2023-10-06T12:52:05.830Z,96340.84
2023-10-06T12:54:52.853Z,96332.50
2023-10-06T12:57:43.351Z,96327.19
2023-10-06T13:00:29.812Z,96315.28
2023-10-06T13:03:18.668Z,96345.50
2023-10-06T13:06:05.994Z,96335.22
2023-10-06T13:08:52.247Z,96331.75
2023-10-06T13:11:38.381Z,96330.34
2023-10-06T13:14:24.209Z,96327.59
2023-10-06T13:17:11.713Z,96331.81
2023-10-06T13:19:57.738Z,96325.66
2023-10-06T13:22:46.035Z,96329.66
2023-10-06T13:25:35.151Z,96310.22
2023-10-06T13:28:22.117Z,96318.94
2023-10-06T13:31:15.107Z,96320.16
2023-10-06T13:34:03.670Z,96320.34
2023-10-06T13:36:50.600Z,96310.19
2023-10-06T13:39:36.592Z,96307.91
2023-10-06T13:42:22.885Z,96311.69
2023-10-06T13:45:19.136Z,96313.13
2023-10-06T13:48:05.675Z,96289.34
2023-10-06T13:50:53.926Z,96308.16
2023-10-06T13:53:42.423Z,96310.59
2023-10-06T13:56:28.950Z,96298.78
2023-10-06T13:59:18.469Z,96291.09
2023-10-06T14:02:04.468Z,96300.69
2023-10-06T14:04:50.918Z,96296.81
2023-10-06T14:07:38.655Z,96295.81
2023-10-06T14:10:26.473Z,96303.66
2023-10-06T14:13:18.126Z,96304.38
2023-10-06T14:16:10.525Z,96290.69
2023-10-06T14:18:57.840Z,96298.59
2023-10-06T14:21:44.178Z,96287.78
2023-10-06T14:24:36.041Z,96303.63
2023-10-06T14:27:22.484Z,96293.75
2023-10-06T14:30:10.548Z,96310.72
2023-10-06T14:33:17.437Z,96309.69
2023-10-06T14:36:03.892Z,96299.91
2023-10-06T14:38:50.128Z,96316.00
2023-10-06T14:41:54.833Z,96325.94
2023-10-06T14:44:59.643Z,96320.66
2023-10-06T14:47:46.046Z,96320.78
2023-10-06T14:50:32.507Z,96321.47
2023-10-06T14:53:19.353Z,96329.34
2023-10-06T14:56:05.845Z,96315.22
2023-10-06T14:58:53.590Z,96320.53
2023-10-06T15:01:41.653Z,96324.44
2023-10-06T15:04:28.338Z,96335.91
2023-10-06T15:07:16.201Z,96333.41
2023-10-06T15:10:02.249Z,96336.06
2023-10-06T15:12:48.311Z,96332.91
2023-10-06T15:15:34.913Z,96332.22
2023-10-06T15:18:23.082Z,96330.66
2023-10-06T15:21:10.123Z,96347.22
2023-10-06T15:23:56.096Z,96321.56
2023-10-06T15:26:46.401Z,96336.47
2023-10-06T15:29:33.540Z,96349.34
2023-10-06T15:32:19.689Z,96342.41
2023-10-06T15:37:53.118Z,96340.34
2023-10-06T15:40:39.499Z,96344.16
2023-10-06T15:43:25.651Z,96359.31
2023-10-06T15:46:12.498Z,96352.69
2023-10-06T15:49:00.179Z,96357.13
2023-10-06T15:51:47.710Z,96336.66
2023-10-06T15:54:33.831Z,96330.94
2023-10-06T15:57:21.862Z,96358.22
2023-10-06T16:00:12.498Z,96357.56
2023-10-06T16:03:03.862Z,96375.09
2023-10-06T16:05:53.826Z,96375.16
2023-10-06T16:08:41.173Z,96376.00
2023-10-06T16:11:27.575Z,96374.25
2023-10-06T16:14:17.550Z,96377.59
2023-10-06T16:17:04.261Z,96386.97
2023-10-06T16:19:50.559Z,96382.38
2023-10-06T16:22:37.864Z,96385.56
2023-10-06T16:25:25.305Z,96395.19
2023-10-06T16:28:11.592Z,96389.00
2023-10-06T16:30:57.970Z,96393.41
2023-10-06T16:33:44.213Z,96403.94
2023-10-06T16:36:30.874Z,96403.91
2023-10-06T16:39:22.985Z,96395.88
2023-10-06T16:42:09.639Z,96415.63
2023-10-06T16:44:55.928Z,96420.38
2023-10-06T16:47:42.404Z,96422.75
2023-10-06T16:50:28.728Z,96416.81
2023-10-06T16:53:15.049Z,96420.53
2023-10-06T16:56:01.538Z,96386.84
2023-10-06T16:58:47.851Z,96430.75
2023-10-06T17:01:35.596Z,96413.59
2023-10-06T17:04:22.210Z,96434.16
2023-10-06T17:07:08.529Z,96443.38
2023-10-06T17:09:54.683Z,96448.53
2023-10-06T17:12:41.169Z,96452.09
2023-10-06T17:15:27.356Z,96451.81
2023-10-06T17:18:13.892Z,96461.00
2023-10-06T17:21:00.093Z,96456.72
2023-10-06T17:23:48.090Z,96464.94
2023-10-06T17:26:34.322Z,96472.75
2023-10-06T17:29:20.565Z,96449.09
2023-10-06T17:32:06.706Z,96475.28
2023-10-06T17:34:52.763Z,96484.34
2023-10-06T17:37:38.675Z,96481.72
2023-10-06T17:40:24.983Z,96480.88
2023-10-06T17:43:13.101Z,96470.50
2023-10-06T17:45:59.606Z,96486.19
2023-10-06T17:48:48.992Z,96475.41
2023-10-06T17:51:37.736Z,96486.28
2023-10-06T17:54:23.624Z,96482.41
2023-10-06T17:57:11.627Z,96486.97
2023-10-06T17:59:57.905Z,96488.72
2023-10-06T18:02:44.643Z,96491.75
2023-10-06T18:05:31.082Z,96491.75
2023-10-06T18:08:17.763Z,96505.97
2023-10-06T18:11:05.165Z,96508.91
2023-10-06T18:13:51.349Z,96507.75
2023-10-06T18:16:38.853Z,96496.03
2023-10-06T18:19:29.024Z,96513.22
2023-10-06T18:22:15.367Z,96507.53
2023-10-06T18:25:01.512Z,96503.75
2023-10-06T18:27:48.041Z,96502.94
2023-10-06T18:30:37.729Z,96510.44
2023-10-06T18:33:24.157Z,96514.63
2023-10-06T18:36:11.520Z,96526.53
2023-10-06T18:38:58.841Z,96513.50
2023-10-06T18:41:48.686Z,96504.72
2023-10-06T18:44:34.906Z,96522.47
2023-10-06T18:47:20.944Z,96508.75
2023-10-06T18:50:18.793Z,96518.53
2023-10-06T18:53:04.798Z,96511.88
2023-10-06T18:55:54.218Z,96474.44
2023-10-06T18:58:40.121Z,96514.88
2023-10-06T19:01:27.329Z,96482.03
2023-10-06T19:04:14.692Z,96520.72
2023-10-06T19:07:05.585Z,96506.41
2023-10-06T19:09:51.446Z,96526.22
2023-10-06T19:12:38.119Z,96529.78
2023-10-06T19:15:24.002Z,96527.69
2023-10-06T19:18:13.213Z,96529.84
2023-10-06T19:21:01.461Z,96525.66
2023-10-06T19:23:48.273Z,96512.56
2023-10-06T19:26:36.298Z,96531.91
2023-10-06T19:29:23.428Z,96526.53
2023-10-06T19:32:09.914Z,96520.50
2023-10-06T19:34:55.868Z,96522.59
2023-10-06T19:37:42.377Z,96522.19
2023-10-06T19:40:28.661Z,96514.69
2023-10-06T19:43:15.615Z,96499.13
2023-10-06T19:46:04.931Z,96488.28
2023-10-06T19:48:57.133Z,96497.66
2023-10-06T19:51:43.551Z,96524.31
2023-10-06T19:54:29.822Z,96519.53
2023-10-06T19:57:16.967Z,96518.06
2023-10-06T20:00:13.573Z,96497.25
2023-10-06T20:03:00.166Z,96533.06
2023-10-06T20:05:46.120Z,96533.03
2023-10-06T20:08:33.574Z,96526.78
2023-10-06T20:11:20.862Z,96511.19
2023-10-06T20:14:08.559Z,96503.03
2023-10-06T20:16:55.444Z,96493.88
2023-10-06T20:19:43.365Z,96508.44
2023-10-06T20:22:30.588Z,96520.09
2023-10-06T20:25:17.148Z,96512.81
2023-10-06T20:28:07.150Z,96505.91
2023-10-06T20:30:56.016Z,96508.22
2023-10-06T20:33:44.050Z,96471.72
2023-10-06T20:36:31.969Z,96500.88
2023-10-06T20:39:39.838Z,96461.91
2023-10-06T20:42:35.046Z,96466.28
2023-10-06T20:45:30.502Z,96509.38
2023-10-06T20:48:40.053Z,96498.50
2023-10-06T20:51:29.397Z,96509.09
2023-10-06T20:54:20.759Z,96514.94
2023-10-06T20:57:11.141Z,96494.44
2023-10-06T20:59:58.938Z,96501.94
2023-10-06T21:02:48.268Z,96518.97
2023-10-06T21:06:10.372Z,96485.56
2023-10-06T21:09:13.663Z,96521.44
2023-10-06T21:12:14.629Z,96456.88
2023-10-06T21:15:18.185Z,96556.84
2023-10-06T21:18:13.812Z,96534.97
2023-10-06T21:21:00.889Z,96536.84
2023-10-06T21:23:47.291Z,96552.22
2023-10-06T21:26:35.666Z,96547.22
2023-10-06T21:29:39.497Z,96512.78
2023-10-06T21:32:27.040Z,96491.34
2023-10-06T21:39:53.666Z,96537.94
2023-10-06T21:42:40.252Z,96541.03
2023-10-06T21:45:26.669Z,96546.19
2023-10-06T21:48:13.276Z,96548.06
2023-10-06T21:50:59.480Z,96554.06
2023-10-06T21:53:46.556Z,96559.44
2023-10-06T21:56:36.350Z,96546.88
2023-10-06T21:59:22.487Z,96557.50
2023-10-06T22:02:08.719Z,96557.50
2023-10-06T22:04:56.673Z,96554.94
2023-10-06T22:07:44.121Z,96558.84
2023-10-06T22:10:31.134Z,96552.19
2023-10-06T22:14:17.651Z,96557.91
2023-10-06T22:17:06.518Z,96555.88
2023-10-06T22:20:06.310Z,96552.03
2023-10-06T22:23:13.072Z,96556.13
2023-10-06T22:26:02.557Z,96569.69
2023-10-06T22:28:58.230Z,96572.53
2023-10-06T22:32:00.241Z,96568.94
2023-10-06T22:35:11.316Z,96579.44
2023-10-06T22:38:08.155Z,96564.84
2023-10-06T22:40:54.575Z,96572.50
2023-10-06T22:43:42.387Z,96590.13
2023-10-06T22:46:30.529Z,96593.63
2023-10-06T22:49:17.351Z,96579.41
2023-10-06T22:52:03.926Z,96593.34
2023-10-06T22:54:49.954Z,96578.94
2023-10-06T22:57:36.286Z,96565.31
2023-10-06T23:00:24.712Z,96584.09
2023-10-06T23:03:11.187Z,96579.66
2023-10-06T23:06:00.717Z,96568.78
2023-10-06T23:08:47.850Z,96576.63
2023-10-06T23:11:33.898Z,96580.91
2023-10-06T23:14:20.176Z,96589.56
2023-10-06T23:17:07.160Z,96578.72
2023-10-06T23:19:56.834Z,96579.91
2023-10-06T23:22:45.956Z,96581.97
2023-10-06T23:25:39.563Z,96582.06
2023-10-06T23:28:45.242Z,96581.69
2023-10-06T23:31:31.579Z,96578.34
2023-10-06T23:34:34.446Z,96580.56
2023-10-06T23:37:23.573Z,96569.72
2023-10-06T23:40:18.968Z,96570.91
2023-10-06T23:43:11.190Z,96574.28
2023-10-06T23:45:57.915Z,96553.34
2023-10-06T23:48:49.061Z,96537.97
2023-10-06T23:52:15.173Z,96555.56
2023-10-06T23:55:19.591Z,96539.97
2023-10-06T23:58:21.693Z,96530.13
